Chaleur - Miscou: Past 24 Hour Conditions

 

Mary's Harbour

08:30 AM NST 07 December 2016
Disclaimer

This table is a summary of hourly weather conditions for the past 24 hours.
Please note that these observations might not always be representative of weather conditions over their associated marine area.

Date / Time
(NST)
Wind(knots) Conditions Visibility(km) Pressure(kPa) Air tempC) Relative humidity(%) Dew pointC) Wind Chill
07 December 2016
8:30 WNW 13 gust 20 Cloudy 16 100.4 -8 77 -11 -16
7:30 WNW 18 gust 26 Cloudy 16 100.3 -7 76 -11 -17
6:30 WNW 17 gust 24 Cloudy 16 100.2 -8 76 -11 -17
5:30 WNW 18 gust 28 Cloudy 16 100.2 -8 75 -11 -17
4:30 WNW 14 gust 24 Cloudy 16 100.2 -8 76 -12 -16
3:30 WNW 16 gust 24 Cloudy 16 100.2 -8 75 -12 -17
2:30 WNW 16 gust 27 Cloudy 16 100.1 -8 74 -12 -17
1:30 WNW 17 gust 24 Light Snow 16 100.1 -8 76 -11 -17
0:30 WNW 17 gust 29 Light Snow 16 100.1 -8 74 -12 -17
06 December 2016
23:30 WNW 18 gust 24 Cloudy 16 100.0 -7 74 -11 -17
22:30 WNW 16 gust 24 Partly Cloudy 16 100.1 -7 76 -11 -16
21:30 WNW 16 gust 29 Light Snow 16 100.1 -7 73 -11 -15
20:30 WNW 16 gust 25 Cloudy 16 100.1 -7 72 -11 -15
19:30 WNW 12 gust 25 Mostly Cloudy 16 100.0 -6 74 -10 -13
18:30 WNW 15 gust 24 Cloudy 16 100.0 -6 73 -10 -14
17:30 WNW 15 gust 22 Light Snow 16 100.0 -6 75 -10 -14
16:30 WNW 16 gust 24 Cloudy 16 100.0 -6 75 -10 -14
15:30 WNW 18 gust 27 Cloudy 16 100.0 -6 73 -10 -15
14:30 WNW 18 gust 28 Mostly Cloudy 16 99.9 -6 70 -10 -14
13:30 WNW 21 gust 28 Mostly Cloudy 16 99.9 -6 69 -10 -15
12:30 WNW 18 gust 26 Mostly Cloudy 16 99.9 -6 70 -11 -15
11:30 WNW 17 gust 27 Sunny 16 100.0 -7 69 -12 -16
10:30 WNW 17 gust 31 Light Snow 16 100.0 -8 71 -12 -17
9:30 WNW 16 gust 26 Light Snow 16 100.1 -8 74 -12 -17
8:30 WNW 14 gust 22 Sunny 16 100.1 -10 79 -13 -18

Zoom-in to make a selection

Map of Atlantic - Newfoundland marine weather areas Southwestern Grand Banks - 44138 Banquereau - 44139 Tail of the Bank - 44140 Nickerson Bank - 44251 Northeast Burgeo Bank - 44255 Blanc-Sablon Airport Cap Whittle Chevery Natashquan Airport Heath Point Miscou Island Grand Étang Ingonish Beach North Mountain St.Paul Island J.A. Douglas McCurdy Sydney Airport Charlottetown Airport East Point North Cape Argentia Bonavista Burgeo Cape Race Corner Brook Daniel's Harbour Englee Ferolle Point La Scie Port aux Basques Rocky Harbour Sagona Island St. Anthony Airport St. John's Int'l Airport St. Lawrence Stephenville Airport Twillingate Winterland Wreckhouse Cartwright Airport Mary's Harbour Grates Cove Pool's Island Marticot Island Long Pond Eskasoni (First Nations) Îles de la Madeleine Airport
Legend:
buoy Buoy
land station Land Station

Atlantic - Newfoundland Area

Another Region

What we are doing

Date modified: